createdAt,value
2022-09-29T00:00:36.183Z,99608.19
2022-09-29T00:03:04.809Z,99600.13
2022-09-29T00:05:32.694Z,99600.13
2022-09-29T00:08:00.533Z,99602.88
2022-09-29T00:10:28.364Z,99605.75
2022-09-29T00:12:56.199Z,99601.16
2022-09-29T00:15:25.316Z,99610.19
2022-09-29T00:18:12.692Z,99612.22
2022-09-29T00:20:40.907Z,99600.44
2022-09-29T00:23:08.676Z,99605.91
2022-09-29T00:25:36.869Z,99599.59
2022-09-29T00:28:04.666Z,99598.88
2022-09-29T00:30:33.884Z,99599.72
2022-09-29T00:33:01.622Z,99604.53
2022-09-29T00:35:29.444Z,99597.34
2022-09-29T00:37:57.187Z,99592.03
2022-09-29T00:40:25.013Z,99598.66
2022-09-29T00:42:52.793Z,99598.66
2022-09-29T00:45:22.619Z,99599.50
2022-09-29T00:48:01.535Z,99598.66
2022-09-29T00:50:40.615Z,99601.53
2022-09-29T00:53:12.853Z,99599.13
2022-09-29T00:55:47.153Z,99601.00
2022-09-29T00:58:24.819Z,99598.41
2022-09-29T01:00:53.044Z,99599.56
2022-09-29T01:03:25.025Z,99601.28
2022-09-29T01:05:58.362Z,99601.63
2022-09-29T01:08:32.127Z,99606.22
2022-09-29T01:11:03.342Z,99603.50
2022-09-29T01:13:32.838Z,99603.78
2022-09-29T01:16:00.697Z,99595.75
2022-09-29T01:18:30.430Z,99605.66
2022-09-29T01:21:07.473Z,99600.34
2022-09-29T01:24:14.424Z,99599.97
2022-09-29T01:27:08.956Z,99600.28
2022-09-29T01:30:09.499Z,99602.28
2022-09-29T01:33:15.956Z,99608.63
2022-09-29T01:35:53.317Z,99610.66
2022-09-29T01:38:45.728Z,99612.53
2022-09-29T01:41:19.754Z,99603.94
2022-09-29T01:43:51.621Z,99611.09
2022-09-29T01:46:25.368Z,99609.72
2022-09-29T01:48:56.472Z,99614.16
2022-09-29T01:51:30.708Z,99612.44
2022-09-29T01:54:04.871Z,99612.59
2022-09-29T01:56:37.506Z,99613.59
2022-09-29T01:59:11.560Z,99607.59
2022-09-29T02:01:44.533Z,99610.31
2022-09-29T02:04:14.277Z,99613.97
2022-09-29T02:06:50.644Z,99611.81
2022-09-29T02:09:24.111Z,99610.94
2022-09-29T02:11:54.105Z,99615.53
2022-09-29T02:14:24.805Z,99623.72
2022-09-29T02:16:59.001Z,99613.81
2022-09-29T02:19:30.567Z,99617.75
2022-09-29T02:22:00.297Z,99622.34
2022-09-29T02:24:28.104Z,99619.91
2022-09-29T02:26:56.863Z,99617.31
2022-09-29T02:29:24.988Z,99622.78
2022-09-29T02:31:53.028Z,99626.69
2022-09-29T02:34:23.179Z,99622.09
2022-09-29T02:36:59.180Z,99633.00
2022-09-29T02:39:40.256Z,99621.53
2022-09-29T02:42:19.437Z,99628.00
2022-09-29T02:45:11.434Z,99620.81
2022-09-29T02:47:53.123Z,99620.09
2022-09-29T02:50:40.877Z,99622.16
2022-09-29T02:53:21.593Z,99617.69
2022-09-29T02:55:58.748Z,99617.84
2022-09-29T02:58:34.101Z,99620.72
2022-09-29T03:01:02.247Z,99616.59
2022-09-29T03:03:30.135Z,99614.03
2022-09-29T03:05:58.332Z,99618.47
2022-09-29T03:08:26.049Z,99614.16
2022-09-29T03:10:55.283Z,99619.63
2022-09-29T03:13:23.138Z,99612.59
2022-09-29T03:15:50.986Z,99616.31
2022-09-29T03:18:18.824Z,99620.94
2022-09-29T03:20:46.681Z,99622.97
2022-09-29T03:23:14.384Z,99624.84
2022-09-29T03:25:43.000Z,99623.97
2022-09-29T03:28:12.370Z,99623.09
2022-09-29T03:30:40.197Z,99627.84
2022-09-29T03:33:07.913Z,99620.84
2022-09-29T03:35:35.766Z,99620.84
2022-09-29T03:38:03.508Z,99624.59
2022-09-29T03:40:31.355Z,99622.88
2022-09-29T03:42:59.149Z,99622.88
2022-09-29T03:45:28.374Z,99632.03
2022-09-29T03:47:56.245Z,99624.88
2022-09-29T03:50:24.030Z,99617.84
2022-09-29T03:52:51.745Z,99623.28
2022-09-29T03:55:19.588Z,99622.44
2022-09-29T03:57:47.547Z,99634.38
2022-09-29T04:00:16.471Z,99627.22
2022-09-29T04:02:45.562Z,99632.81
2022-09-29T04:05:13.793Z,99632.94
2022-09-29T04:07:41.578Z,99637.69
2022-09-29T04:10:10.197Z,99633.25
2022-09-29T04:12:37.940Z,99633.41
2022-09-29T04:15:06.885Z,99639.00
2022-09-29T04:17:34.847Z,99637.44
2022-09-29T04:20:04.153Z,99642.59
2022-09-29T04:22:31.988Z,99646.75
2022-09-29T04:24:59.826Z,99644.03
2022-09-29T04:27:27.565Z,99649.66
2022-09-29T04:29:55.371Z,99655.25
2022-09-29T04:32:24.610Z,99653.53
2022-09-29T04:34:52.671Z,99658.97
2022-09-29T04:37:21.793Z,99656.25
2022-09-29T04:39:49.832Z,99660.13
2022-09-29T04:42:17.587Z,99665.56
2022-09-29T04:44:45.508Z,99665.56
2022-09-29T04:47:13.539Z,99661.13
2022-09-29T04:49:41.358Z,99664.84
2022-09-29T04:52:15.650Z,99663.84
2022-09-29T04:54:44.829Z,99674.06
2022-09-29T04:57:13.750Z,99673.22
2022-09-29T04:59:41.501Z,99671.72
2022-09-29T05:02:09.361Z,99670.00
2022-09-29T05:04:37.322Z,99672.19
2022-09-29T05:07:05.074Z,99667.88
2022-09-29T05:09:34.047Z,99669.88
2022-09-29T05:12:03.692Z,99674.63
2022-09-29T05:14:31.547Z,99674.94
2022-09-29T05:17:00.017Z,99677.78
2022-09-29T05:19:27.797Z,99680.81
2022-09-29T05:21:55.522Z,99682.97
2022-09-29T05:24:23.629Z,99689.44
2022-09-29T05:26:56.094Z,99688.72
2022-09-29T05:29:27.445Z,99696.88
2022-09-29T05:31:55.280Z,99696.16
2022-09-29T05:34:23.314Z,99695.28
2022-09-29T05:36:51.331Z,99702.78
2022-09-29T05:39:21.120Z,99697.34
2022-09-29T05:41:50.009Z,99706.34
2022-09-29T05:44:17.784Z,99708.22
2022-09-29T05:46:47.012Z,99709.94
2022-09-29T05:49:14.821Z,99715.53
2022-09-29T05:51:42.672Z,99710.09
2022-09-29T05:54:10.601Z,99718.41
2022-09-29T05:56:40.774Z,99721.13
2022-09-29T05:59:12.376Z,99720.25
2022-09-29T06:01:40.283Z,99719.41
2022-09-29T06:04:09.507Z,99717.41
2022-09-29T06:06:40.032Z,99721.25
2022-09-29T06:09:08.500Z,99720.25
2022-09-29T06:11:36.322Z,99724.84
2022-09-29T06:14:04.176Z,99725.72
2022-09-29T06:16:33.968Z,99723.84
2022-09-29T06:19:02.522Z,99724.84
2022-09-29T06:21:33.956Z,99720.13
2022-09-29T06:24:02.484Z,99730.28
2022-09-29T06:26:31.170Z,99725.72
2022-09-29T06:28:59.524Z,99732.00
2022-09-29T06:31:29.279Z,99733.44
2022-09-29T06:33:58.856Z,99739.47
2022-09-29T06:36:47.308Z,99741.47
2022-09-29T06:39:18.522Z,99742.47
2022-09-29T06:41:52.118Z,99750.22
2022-09-29T06:44:20.249Z,99747.44
2022-09-29T06:46:48.616Z,99744.34
2022-09-29T06:49:16.802Z,99748.28
2022-09-29T06:51:46.493Z,99738.09
2022-09-29T06:54:18.080Z,99743.97
2022-09-29T06:56:48.382Z,99745.00
2022-09-29T06:59:18.348Z,99747.81
2022-09-29T07:01:50.856Z,99748.75
2022-09-29T07:04:20.276Z,99748.66
2022-09-29T07:06:48.308Z,99744.75
2022-09-29T07:09:18.095Z,99750.97
2022-09-29T07:11:47.209Z,99751.94
2022-09-29T07:14:15.139Z,99754.03
2022-09-29T07:16:43.298Z,99761.53
2022-09-29T07:19:11.633Z,99750.00
2022-09-29T07:21:39.405Z,99764.34
2022-09-29T07:24:07.421Z,99758.41
2022-09-29T07:26:37.440Z,99752.47
2022-09-29T07:29:05.368Z,99750.94
2022-09-29T07:31:43.874Z,99757.69
2022-09-29T07:34:16.228Z,99760.13
2022-09-29T07:36:43.993Z,99760.47
2022-09-29T07:39:12.002Z,99771.84
2022-09-29T07:41:41.236Z,99768.75
2022-09-29T07:44:09.049Z,99768.94
2022-09-29T07:46:36.837Z,99765.31
2022-09-29T07:49:05.470Z,99762.97
2022-09-29T07:51:33.400Z,99778.19
2022-09-29T07:54:03.934Z,99770.28
2022-09-29T07:56:33.138Z,99767.84
2022-09-29T07:59:04.213Z,99777.69
2022-09-29T08:01:32.395Z,99775.59
2022-09-29T08:04:02.022Z,99775.22
2022-09-29T08:06:30.147Z,99779.00
2022-09-29T08:09:04.186Z,99789.56
2022-09-29T08:11:33.738Z,99794.13
2022-09-29T08:14:03.909Z,99790.44
2022-09-29T08:16:32.498Z,99795.34
2022-09-29T08:19:00.752Z,99789.09
2022-09-29T08:21:29.720Z,99790.22
2022-09-29T08:23:57.598Z,99798.56
2022-09-29T08:26:36.867Z,99801.41
2022-09-29T08:29:15.708Z,99804.06
2022-09-29T08:31:44.812Z,99799.50
2022-09-29T08:34:13.399Z,99805.59
2022-09-29T08:36:43.495Z,99810.59
2022-09-29T08:39:11.981Z,99819.91
2022-09-29T08:41:51.757Z,99817.16
2022-09-29T08:44:37.737Z,99819.25
2022-09-29T08:47:15.715Z,99817.53
2022-09-29T08:49:47.917Z,99819.63
2022-09-29T08:52:20.045Z,99821.69
2022-09-29T08:54:50.562Z,99819.97
2022-09-29T08:57:20.959Z,99818.94
2022-09-29T08:59:54.892Z,99829.97
2022-09-29T09:02:59.975Z,99822.72
2022-09-29T09:05:55.566Z,99826.16
2022-09-29T09:08:41.471Z,99822.84
2022-09-29T09:11:27.144Z,99826.09
2022-09-29T09:14:08.280Z,99833.78
2022-09-29T09:16:48.812Z,99833.41
2022-09-29T09:19:37.527Z,99836.66
2022-09-29T09:22:15.745Z,99840.06
2022-09-29T09:24:49.375Z,99840.56
2022-09-29T09:27:24.550Z,99832.97
2022-09-29T09:30:05.694Z,99838.31
2022-09-29T09:32:43.401Z,99834.28
2022-09-29T09:35:28.608Z,99832.41
2022-09-29T09:38:01.498Z,99834.78
2022-09-29T09:40:35.674Z,99839.91
2022-09-29T09:43:10.756Z,99828.34
2022-09-29T09:45:43.846Z,99836.88
2022-09-29T09:48:22.718Z,99840.59
2022-09-29T09:50:51.562Z,99839.19
2022-09-29T09:53:25.240Z,99837.00
2022-09-29T09:56:03.828Z,99840.56
2022-09-29T09:59:00.947Z,99845.97
2022-09-29T10:01:29.010Z,99845.69
2022-09-29T10:04:00.969Z,99845.19
2022-09-29T10:06:29.216Z,99836.34
2022-09-29T10:08:57.093Z,99837.53
2022-09-29T10:11:27.068Z,99840.00
2022-09-29T10:14:01.493Z,99836.06
2022-09-29T10:16:35.049Z,99849.75
2022-09-29T10:19:06.327Z,99840.53
2022-09-29T10:21:38.636Z,99842.97
2022-09-29T10:24:09.280Z,99842.56
2022-09-29T10:26:40.183Z,99840.34
2022-09-29T10:29:23.385Z,99843.81
2022-09-29T10:32:03.233Z,99847.69
2022-09-29T10:34:34.366Z,99846.91
2022-09-29T10:37:04.862Z,99849.94
2022-09-29T10:39:51.035Z,99849.53
2022-09-29T10:42:23.244Z,99855.31
2022-09-29T10:44:53.999Z,99854.06
2022-09-29T10:47:23.961Z,99849.66
2022-09-29T10:50:14.281Z,99860.13
2022-09-29T10:52:44.954Z,99855.88
2022-09-29T10:55:19.596Z,99853.41
2022-09-29T10:57:48.449Z,99861.09
2022-09-29T11:00:32.217Z,99862.19
2022-09-29T11:03:06.005Z,99855.63
2022-09-29T11:05:36.599Z,99857.13
2022-09-29T11:08:04.547Z,99868.19
2022-09-29T11:10:35.481Z,99865.00
2022-09-29T11:13:39.112Z,99864.56
2022-09-29T11:16:15.805Z,99869.28
2022-09-29T11:18:45.873Z,99862.50
2022-09-29T11:21:55.064Z,99867.00
2022-09-29T11:24:35.202Z,99871.72
2022-09-29T11:27:14.648Z,99868.31
2022-09-29T11:29:51.561Z,99874.31
2022-09-29T11:32:34.653Z,99873.69
2022-09-29T11:35:27.547Z,99874.56
2022-09-29T11:38:09.404Z,99872.22
2022-09-29T11:40:48.617Z,99874.13
2022-09-29T11:43:31.960Z,99869.84
2022-09-29T11:46:14.061Z,99874.94
2022-09-29T11:48:56.247Z,99882.97
2022-09-29T11:51:34.063Z,99877.38
2022-09-29T11:54:24.105Z,99879.91
2022-09-29T11:57:00.054Z,99869.44
2022-09-29T11:59:46.110Z,99880.25
2022-09-29T12:02:41.027Z,99876.75
2022-09-29T12:05:17.729Z,99869.91
2022-09-29T12:07:58.032Z,99875.00
2022-09-29T12:10:53.645Z,99868.75
2022-09-29T12:13:30.348Z,99868.31
2022-09-29T12:16:04.261Z,99873.00
2022-09-29T12:18:39.134Z,99866.22
2022-09-29T12:21:12.955Z,99873.28
2022-09-29T12:23:45.965Z,99866.50
2022-09-29T12:26:17.839Z,99875.91
2022-09-29T12:28:52.269Z,99869.97
2022-09-29T12:31:25.841Z,99872.81
2022-09-29T12:33:58.249Z,99872.63
2022-09-29T12:36:46.734Z,99879.66
2022-09-29T12:39:23.279Z,99876.50
2022-09-29T12:41:57.733Z,99871.81
2022-09-29T12:44:33.147Z,99873.72
2022-09-29T12:47:05.680Z,99875.63
2022-09-29T12:49:39.556Z,99871.53
2022-09-29T12:52:14.334Z,99870.69
2022-09-29T12:54:48.092Z,99877.88
2022-09-29T12:57:18.184Z,99873.81
2022-09-29T12:59:56.952Z,99874.00
2022-09-29T13:02:48.328Z,99882.00
2022-09-29T13:05:35.725Z,99873.66
2022-09-29T13:08:25.684Z,99873.41
2022-09-29T13:11:07.284Z,99869.31
2022-09-29T13:14:03.896Z,99876.88
2022-09-29T13:16:57.132Z,99870.25
2022-09-29T13:19:57.421Z,99867.88
2022-09-29T13:22:42.965Z,99879.72
2022-09-29T13:25:22.854Z,99878.44
2022-09-29T13:27:53.693Z,99874.53
2022-09-29T13:30:25.544Z,99883.41
2022-09-29T13:33:02.285Z,99877.59
2022-09-29T13:35:30.445Z,99883.72
2022-09-29T13:38:05.288Z,99877.53
2022-09-29T13:40:34.072Z,99880.91
2022-09-29T13:43:05.166Z,99882.13
2022-09-29T13:45:44.766Z,99885.94
2022-09-29T13:48:50.518Z,99884.59
2022-09-29T13:51:39.898Z,99884.78
2022-09-29T13:54:33.941Z,99890.22
2022-09-29T13:57:25.402Z,99889.19
2022-09-29T14:00:17.456Z,99882.31
2022-09-29T14:02:48.598Z,99885.28
2022-09-29T14:05:38.418Z,99885.28
2022-09-29T14:08:19.018Z,99889.94
2022-09-29T14:10:51.218Z,99889.06
2022-09-29T14:13:25.681Z,99898.44
2022-09-29T14:16:11.581Z,99891.66
2022-09-29T14:18:43.156Z,99902.69
2022-09-29T14:21:12.832Z,99905.06
2022-09-29T14:23:51.776Z,99905.34
2022-09-29T14:26:48.997Z,99905.53
2022-09-29T14:29:21.546Z,99902.38
2022-09-29T14:31:52.991Z,99907.72
2022-09-29T14:34:24.500Z,99907.16
2022-09-29T14:36:54.893Z,99913.53
2022-09-29T14:39:27.151Z,99913.53
2022-09-29T14:41:55.260Z,99921.66
2022-09-29T14:44:27.024Z,99915.81
2022-09-29T14:47:29.028Z,99929.44
2022-09-29T14:50:33.322Z,99928.75
2022-09-29T14:53:17.897Z,99926.38
2022-09-29T14:56:02.535Z,99937.81
2022-09-29T14:58:47.241Z,99928.19
2022-09-29T15:01:26.307Z,99924.78
2022-09-29T15:03:56.747Z,99935.53
2022-09-29T15:06:26.674Z,99935.91
2022-09-29T15:08:57.987Z,99935.25
2022-09-29T15:11:34.914Z,99938.41
2022-09-29T15:14:03.674Z,99938.31
2022-09-29T15:16:41.170Z,99944.88
2022-09-29T15:19:31.388Z,99942.88
2022-09-29T15:22:13.854Z,99938.78
2022-09-29T15:25:10.334Z,99934.03
2022-09-29T15:27:40.847Z,99935.25
2022-09-29T15:30:16.814Z,99932.69
2022-09-29T15:32:48.197Z,99935.16
2022-09-29T15:35:21.148Z,99938.47
2022-09-29T15:37:58.110Z,99937.84
2022-09-29T15:40:28.375Z,99938.38
2022-09-29T15:42:57.576Z,99942.56
2022-09-29T15:45:27.411Z,99942.25
2022-09-29T15:48:04.930Z,99944.38
2022-09-29T15:50:42.687Z,99950.56
2022-09-29T15:53:12.234Z,99957.53
2022-09-29T15:55:40.310Z,99950.84
2022-09-29T15:58:36.852Z,99952.81
2022-09-29T16:01:07.001Z,99963.19
2022-09-29T16:03:41.050Z,99963.38
2022-09-29T16:06:18.588Z,99964.75
2022-09-29T16:08:50.233Z,99972.72
2022-09-29T16:11:22.589Z,99967.59
2022-09-29T16:13:56.301Z,99976.59
2022-09-29T16:16:32.873Z,99974.88
2022-09-29T16:19:10.659Z,99979.91
2022-09-29T16:21:39.660Z,99982.34
2022-09-29T16:24:13.172Z,99977.00
2022-09-29T16:26:43.859Z,99990.31
2022-09-29T16:29:31.031Z,99994.44
2022-09-29T16:31:59.757Z,100001.19
2022-09-29T16:34:33.315Z,100005.84
2022-09-29T16:37:03.713Z,100004.47
2022-09-29T16:39:33.917Z,100002.97
2022-09-29T16:42:07.135Z,100005.91
2022-09-29T16:44:43.593Z,100011.75
2022-09-29T16:47:17.759Z,100022.94
2022-09-29T16:49:49.465Z,100026.94
2022-09-29T16:52:23.140Z,100020.91
2022-09-29T16:54:52.284Z,100013.19
2022-09-29T16:57:25.253Z,100022.09
2022-09-29T16:59:56.783Z,100025.22
2022-09-29T17:02:26.028Z,100021.97
2022-09-29T17:04:54.933Z,100033.34
2022-09-29T17:07:25.145Z,100031.81
2022-09-29T17:09:56.028Z,100032.16
2022-09-29T17:12:25.647Z,100028.22
2022-09-29T17:14:55.195Z,100040.59
2022-09-29T17:17:25.421Z,100035.66
2022-09-29T17:19:56.284Z,100040.84
2022-09-29T17:22:29.426Z,100043.94
2022-09-29T17:24:58.154Z,100046.38
2022-09-29T17:27:55.766Z,100047.75
2022-09-29T17:30:28.404Z,100053.97
2022-09-29T17:32:58.293Z,100053.59
2022-09-29T17:35:29.578Z,100059.47
2022-09-29T17:37:57.805Z,100056.38
2022-09-29T17:40:29.092Z,100066.03
2022-09-29T17:42:59.076Z,100061.22
2022-09-29T17:45:32.311Z,100068.94
2022-09-29T17:48:00.165Z,100064.63
2022-09-29T17:50:37.547Z,100073.22
2022-09-29T17:53:05.875Z,100074.09
2022-09-29T17:55:34.754Z,100081.97
2022-09-29T17:58:03.929Z,100078.03
2022-09-29T18:00:38.288Z,100082.13
2022-09-29T18:03:06.840Z,100088.50
2022-09-29T18:05:34.654Z,100079.06
2022-09-29T18:08:03.657Z,100091.59
2022-09-29T18:10:38.920Z,100092.09
2022-09-29T18:13:07.593Z,100102.03
2022-09-29T18:15:38.002Z,100107.84
2022-09-29T18:18:08.105Z,100102.00
2022-09-29T18:20:37.055Z,100115.22
2022-09-29T18:23:05.359Z,100116.56
2022-09-29T18:25:34.872Z,100115.00
2022-09-29T18:28:03.428Z,100114.50
2022-09-29T18:30:32.866Z,100126.69
2022-09-29T18:33:02.943Z,100127.00
2022-09-29T18:35:34.438Z,100131.97
2022-09-29T18:38:03.011Z,100130.56
2022-09-29T18:40:32.380Z,100134.50
2022-09-29T18:43:00.496Z,100134.13
2022-09-29T18:45:29.683Z,100136.19
2022-09-29T18:47:59.619Z,100137.53
2022-09-29T18:50:31.749Z,100136.81
2022-09-29T18:53:01.613Z,100144.16
2022-09-29T18:55:31.605Z,100152.53
2022-09-29T18:58:01.104Z,100148.56
2022-09-29T19:00:32.149Z,100152.50
2022-09-29T19:03:02.696Z,100159.50
2022-09-29T19:05:34.590Z,100152.44
2022-09-29T19:08:05.037Z,100154.69
2022-09-29T19:10:34.438Z,100163.22
2022-09-29T19:13:04.489Z,100169.03
2022-09-29T19:15:35.490Z,100166.63
2022-09-29T19:18:05.283Z,100165.03
2022-09-29T19:20:35.012Z,100170.69
2022-09-29T19:23:03.634Z,100183.88
2022-09-29T19:25:33.432Z,100174.06
2022-09-29T19:28:05.001Z,100180.91
2022-09-29T19:30:34.517Z,100178.63
2022-09-29T19:33:02.363Z,100191.97
2022-09-29T19:35:30.294Z,100185.94
2022-09-29T19:37:59.796Z,100193.47
2022-09-29T19:40:29.977Z,100187.44
2022-09-29T19:43:02.435Z,100196.97
2022-09-29T19:45:30.305Z,100198.34
2022-09-29T19:47:58.421Z,100207.56
2022-09-29T19:50:43.942Z,100212.34
2022-09-29T19:53:13.158Z,100217.28
2022-09-29T19:55:42.177Z,100221.16
2022-09-29T19:58:10.154Z,100226.25
2022-09-29T20:00:40.717Z,100218.34
2022-09-29T20:03:08.853Z,100226.72
2022-09-29T20:05:37.770Z,100228.75
2022-09-29T20:08:06.623Z,100233.53
2022-09-29T20:10:36.349Z,100239.16
2022-09-29T20:13:04.449Z,100242.34
2022-09-29T20:15:32.231Z,100239.78
2022-09-29T20:18:00.146Z,100249.03
2022-09-29T20:20:27.946Z,100256.69
2022-09-29T20:22:55.754Z,100258.69
2022-09-29T20:25:23.589Z,100257.16
2022-09-29T20:27:55.469Z,100264.50
2022-09-29T20:30:26.218Z,100261.34
2022-09-29T20:32:54.105Z,100262.53
2022-09-29T20:35:21.945Z,100261.81
2022-09-29T20:37:49.829Z,100269.31
2022-09-29T20:40:17.781Z,100263.31
2022-09-29T20:42:46.209Z,100266.34
2022-09-29T20:45:16.286Z,100274.69
2022-09-29T20:47:44.119Z,100271.56
2022-09-29T20:50:11.964Z,100272.88
2022-09-29T20:52:39.862Z,100282.25
2022-09-29T20:55:08.282Z,100281.69
2022-09-29T20:57:36.113Z,100289.50
2022-09-29T21:00:04.742Z,100287.06
2022-09-29T21:02:34.060Z,100283.75
2022-09-29T21:05:01.916Z,100294.16
2022-09-29T21:07:38.709Z,100296.31
2022-09-29T21:10:08.370Z,100298.50
2022-09-29T21:12:36.159Z,100297.91
2022-09-29T21:15:04.746Z,100306.28
2022-09-29T21:17:37.049Z,100313.63
2022-09-29T21:20:05.238Z,100311.47
2022-09-29T21:22:35.320Z,100312.47
2022-09-29T21:25:03.361Z,100308.03
2022-09-29T21:27:31.806Z,100303.72
2022-09-29T21:29:59.597Z,100308.44
2022-09-29T21:32:29.725Z,100316.66
2022-09-29T21:34:59.026Z,100316.78
2022-09-29T21:37:27.094Z,100317.94
2022-09-29T21:39:54.910Z,100311.78
2022-09-29T21:42:22.713Z,100321.72
2022-09-29T21:44:52.826Z,100320.13
2022-09-29T21:47:42.689Z,100323.13
2022-09-29T21:50:12.190Z,100324.88
2022-09-29T21:52:40.201Z,100329.63
2022-09-29T21:55:09.350Z,100327.06
2022-09-29T21:57:38.846Z,100319.13
2022-09-29T22:00:07.536Z,100338.41
2022-09-29T22:02:35.619Z,100330.53
2022-09-29T22:05:03.510Z,100325.34
2022-09-29T22:07:32.726Z,100334.53
2022-09-29T22:10:00.548Z,100332.25
2022-09-29T22:12:28.307Z,100330.81
2022-09-29T22:14:57.425Z,100334.69
2022-09-29T22:17:25.224Z,100333.13
2022-09-29T22:19:53.002Z,100334.13
2022-09-29T22:22:20.775Z,100328.94
2022-09-29T22:24:50.178Z,100336.28
2022-09-29T22:27:18.027Z,100339.13
2022-09-29T22:29:48.564Z,100342.75
2022-09-29T22:32:16.594Z,100339.44
2022-09-29T22:34:44.528Z,100343.19
2022-09-29T22:37:12.390Z,100342.47
2022-09-29T22:39:40.232Z,100341.59
2022-09-29T22:42:09.427Z,100352.41
2022-09-29T22:44:37.186Z,100350.09
2022-09-29T22:47:05.667Z,100346.50
2022-09-29T22:49:33.458Z,100350.25
2022-09-29T22:52:01.490Z,100346.78
2022-09-29T22:54:29.286Z,100348.78
2022-09-29T22:56:57.096Z,100345.19
2022-09-29T22:59:26.468Z,100347.91
2022-09-29T23:01:54.287Z,100351.09
2022-09-29T23:04:22.170Z,100348.50
2022-09-29T23:06:49.940Z,100350.50
2022-09-29T23:09:17.834Z,100351.66
2022-09-29T23:11:46.036Z,100349.22
2022-09-29T23:14:15.013Z,100355.81
2022-09-29T23:16:44.284Z,100354.94
2022-09-29T23:19:12.278Z,100355.38
2022-09-29T23:21:40.032Z,100355.66
2022-09-29T23:24:08.175Z,100369.63
2022-09-29T23:26:35.974Z,100371.75
2022-09-29T23:29:04.837Z,100368.41
2022-09-29T23:31:32.839Z,100374.19
2022-09-29T23:34:02.132Z,100369.84
2022-09-29T23:36:31.793Z,100370.16
2022-09-29T23:39:11.206Z,100376.88
2022-09-29T23:41:41.342Z,100370.69
2022-09-29T23:44:09.817Z,100380.91
2022-09-29T23:46:39.395Z,100379.00
2022-09-29T23:49:10.467Z,100377.31
2022-09-29T23:51:39.977Z,100380.28
2022-09-29T23:54:08.475Z,100376.81
2022-09-29T23:56:36.350Z,100376.94
2022-09-29T23:59:04.930Z,100377.09
